This is the latest recevied weather packets stored in our database for station/object N3AVN. If no packets are shown the sender has not sent any weather packets the latest 1 day(s).
| Time | Temp. | Humidity | Pressure | Rain* | Wind** | Luminosity | Snow |
|---|---|---|---|---|---|---|---|
| 1778081335 | 20° C | 73% | 1007.3 hPa | 0 mm | - | 193 W/m² | - |
| 1778081032 | 20° C | 74% | 1007.3 hPa | 0 mm | - | 207 W/m² | - |
| 1778080731 | 20° C | 73% | 1007.4 hPa | 0 mm | - | 184 W/m² | - |
| 1778079821 | 20° C | 75% | 1007.4 hPa | 0 mm | - | 225 W/m² | - |
| 1778079214 | 19.44° C | 76% | 1007.2 hPa | 0 mm | - | 250 W/m² | - |
| 1778078912 | 19.44° C | 76% | 1007.5 hPa | 0 mm | - | 206 W/m² | - |
| 1778078307 | 18.89° C | 77% | 1007.6 hPa | 0 mm | - | 226 W/m² | - |
| 1778076493 | 18.89° C | 77% | 1007.7 hPa | 0 mm | - | 421 W/m² | - |
| 1778074976 | 17.78° C | 81% | 1007.5 hPa | 0 mm | - | 152 W/m² | - |
| 1778074370 | 17.78° C | 82% | 1007.7 hPa | 0 mm | - | 144 W/m² | - |
| 1778074066 | 17.22° C | 82% | 1007.5 hPa | 0 mm | - | 148 W/m² | - |
| 1778073764 | 17.22° C | 83% | 1007.5 hPa | 0 mm | - | 161 W/m² | - |
| 1778073462 | 17.22° C | 83% | 1007.6 hPa | 0 mm | - | 158 W/m² | - |
| 1778071645 | 16.11° C | 86% | 1007.8 hPa | 0 mm | - | 70 W/m² | - |
| 1778070435 | 15.56° C | 87% | 1008.2 hPa | 0 mm | - | 116 W/m² | - |
| 1778069830 | 15.56° C | 87% | 1008.3 hPa | 0 mm | - | 81 W/m² | - |
| 1778067411 | 15° C | 87% | 1008.2 hPa | 0 mm | - | 60 W/m² | - |
| 1778066199 | 15° C | 89% | 1008.1 hPa | 0 mm | - | 77 W/m² | - |
| 1778064383 | 13.89° C | 92% | 1008.5 hPa | 0 mm | - | 44 W/m² | - |
| 1778064080 | 13.89° C | 92% | 1008.5 hPa | 0 mm | - | 22 W/m² | - |
| 1778063777 | 13.89° C | 92% | 1008.5 hPa | 0 mm | - | 15 W/m² | - |
| 1778063474 | 13.89° C | 92% | 1008.7 hPa | 0 mm | - | 16 W/m² | - |
| 1778063172 | 13.33° C | 92% | 1008.5 hPa | 0 mm | - | 16 W/m² | - |
| 1778062566 | 13.33° C | 92% | 1008.2 hPa | 0 mm | - | 21 W/m² | - |
| 1778061961 | 13.33° C | 92% | 1008.3 hPa | 0 mm | - | 12 W/m² | - |
* Rain latest hour (hover to see other rain measurements)
** Current wind speed in m/s (hover to see current wind gust speed)